createdAt,value
2022-09-06T00:47:16.657Z,3.58
2022-09-06T00:49:48.643Z,3.80
2022-09-06T00:52:19.765Z,3.05
2022-09-06T00:54:49.174Z,3.38
2022-09-06T00:57:18.338Z,2.17
2022-09-06T00:59:48.220Z,2.20
2022-09-06T01:46:40.780Z,1.77
2022-09-06T01:49:28.286Z,3.88
2022-09-06T01:52:13.242Z,2.13
2022-09-06T01:55:08.173Z,1.90
2022-09-06T01:57:54.416Z,1.73
2022-09-06T02:46:08.143Z,2.65
2022-09-06T02:48:36.345Z,2.42
2022-09-06T02:51:05.173Z,1.17
2022-09-06T02:53:33.705Z,2.08
2022-09-06T02:56:02.563Z,1.52
2022-09-06T02:58:30.699Z,1.20
2022-09-06T04:32:42.738Z,1.88
2022-09-06T04:35:10.902Z,2.75
2022-09-06T04:37:39.008Z,5.45
2022-09-06T04:40:09.614Z,1.85
2022-09-06T04:42:37.772Z,1.40
2022-09-06T04:45:07.243Z,4.05
2022-09-06T04:47:35.354Z,2.70
2022-09-06T04:50:05.495Z,3.20
2022-09-06T04:52:33.626Z,3.28
2022-09-06T04:55:01.746Z,2.03
2022-09-06T04:57:29.876Z,1.20
2022-09-06T04:59:58.007Z,2.53
2022-09-06T05:02:26.241Z,1.33
2022-09-06T05:04:54.788Z,1.60
2022-09-06T05:07:24.253Z,1.92
2022-09-06T05:09:52.331Z,2.22
2022-09-06T05:12:20.400Z,2.25
2022-09-06T05:14:48.481Z,2.55
2022-09-06T05:17:16.613Z,1.65
2022-09-06T05:19:44.699Z,2.70
2022-09-06T05:22:13.106Z,1.27
2022-09-06T05:24:42.961Z,1.63
2022-09-06T05:27:12.672Z,2.50
2022-09-06T05:29:40.965Z,2.78
2022-09-06T05:32:09.179Z,1.50
2022-09-06T05:34:37.343Z,1.75
2022-09-06T05:37:05.711Z,2.03
2022-09-06T05:39:33.877Z,1.73
2022-09-06T05:42:07.007Z,2.30
2022-09-06T05:44:35.303Z,2.58
2022-09-06T05:47:03.851Z,1.42
2022-09-06T05:49:33.164Z,2.47
2022-09-06T05:52:01.271Z,5.03
2022-09-06T05:54:29.673Z,4.63
2022-09-06T05:56:58.571Z,2.10
2022-09-06T05:59:28.775Z,5.72
2022-09-06T06:01:57.630Z,4.53
2022-09-06T06:04:26.363Z,2.38
2022-09-06T06:06:54.577Z,3.78
2022-09-06T06:09:24.008Z,1.58
2022-09-06T06:11:52.318Z,2.88
2022-09-06T06:14:20.388Z,2.22
2022-09-06T06:16:50.651Z,2.47
2022-09-06T06:19:19.042Z,1.67
2022-09-06T06:21:47.162Z,1.90
2022-09-06T06:24:15.243Z,1.88
2022-09-06T06:26:43.880Z,2.45
2022-09-06T06:29:12.491Z,1.60
2022-09-06T06:31:41.150Z,1.88
2022-09-06T06:34:10.827Z,2.58
2022-09-06T06:36:39.241Z,2.72
2022-09-06T06:39:09.463Z,1.98
2022-09-06T06:41:37.719Z,1.60
2022-09-06T06:44:23.334Z,1.40
2022-09-06T06:46:52.202Z,2.28
2022-09-06T06:49:21.723Z,1.60
2022-09-06T06:51:49.822Z,1.98
2022-09-06T06:54:17.927Z,2.95
2022-09-06T06:56:46.064Z,1.38
2022-09-06T06:59:14.654Z,1.65
2022-09-06T07:01:42.946Z,2.67
2022-09-06T07:04:12.225Z,1.70
2022-09-06T07:12:29.515Z,1.58
2022-09-06T07:14:57.648Z,1.83
2022-09-06T07:17:25.767Z,1.55
2022-09-06T07:22:43.886Z,1.65
2022-09-06T07:25:16.557Z,1.83
2022-09-06T07:27:49.537Z,1.85
2022-09-06T07:30:19.900Z,1.75
2022-09-06T07:32:48.373Z,1.35
2022-09-06T07:35:16.652Z,1.67
2022-09-06T07:37:53.602Z,1.63
2022-09-06T07:40:21.716Z,1.27
2022-09-06T07:42:49.815Z,1.40
2022-09-06T07:45:21.153Z,2.78
2022-09-06T07:53:15.528Z,1.73
2022-09-06T07:55:45.886Z,2.30
2022-09-06T07:58:14.130Z,2.63
2022-09-06T08:00:42.304Z,3.10
2022-09-06T08:03:10.665Z,3.75
2022-09-06T08:11:16.713Z,5.78
2022-09-06T08:13:45.634Z,3.58
2022-09-06T08:16:15.603Z,4.63
2022-09-06T08:18:44.329Z,3.72
2022-09-06T08:21:14.972Z,1.33
2022-09-06T08:23:48.467Z,2.70
2022-09-06T08:26:17.350Z,3.00
2022-09-06T08:28:45.982Z,2.97
2022-09-06T08:31:16.972Z,2.75
2022-09-06T08:33:47.588Z,3.00
2022-09-06T08:36:16.587Z,1.77
2022-09-06T08:38:46.611Z,1.55
2022-09-06T08:41:26.259Z,5.72
2022-09-06T08:46:55.190Z,2.42
2022-09-06T08:49:23.622Z,4.13
2022-09-06T08:52:07.377Z,1.50
2022-09-06T08:54:42.004Z,2.38
2022-09-06T08:57:21.848Z,2.10
2022-09-06T08:59:54.877Z,2.25
2022-09-06T09:02:23.513Z,1.30
2022-09-06T09:04:59.077Z,3.38
2022-09-06T09:07:41.212Z,1.77
2022-09-06T09:10:17.160Z,2.05
2022-09-06T09:12:49.818Z,4.00
2022-09-06T09:15:21.072Z,1.98
2022-09-06T09:17:52.424Z,3.28
2022-09-06T09:20:21.059Z,2.17
2022-09-06T09:22:49.670Z,2.25
2022-09-06T09:25:24.471Z,2.10
2022-09-06T09:27:57.625Z,5.90
2022-09-06T09:33:31.552Z,3.47
2022-09-06T09:36:02.056Z,2.33
2022-09-06T09:38:33.825Z,3.30
2022-09-06T09:41:06.702Z,2.42
2022-09-06T09:43:38.681Z,2.00
2022-09-06T09:46:18.593Z,3.38
2022-09-06T09:49:04.846Z,2.25
2022-09-06T09:51:38.894Z,2.95
2022-09-06T09:54:10.125Z,2.47
2022-09-06T09:56:48.343Z,2.13
2022-09-06T09:59:24.959Z,1.85
2022-09-06T10:01:56.586Z,2.58
2022-09-06T10:04:47.969Z,1.73
2022-09-06T10:07:19.344Z,2.47
2022-09-06T10:09:49.477Z,1.85
2022-09-06T10:12:28.136Z,2.03
2022-09-06T10:14:57.262Z,2.25
2022-09-06T10:17:32.709Z,1.92
2022-09-06T10:20:06.386Z,2.17
2022-09-06T10:22:44.837Z,2.20
2022-09-06T10:25:48.985Z,2.30
2022-09-06T10:28:36.492Z,2.22
2022-09-06T10:31:35.307Z,2.88
2022-09-06T10:34:18.092Z,2.15
2022-09-06T10:36:55.314Z,2.20
2022-09-06T10:39:39.833Z,2.00
2022-09-06T10:42:20.661Z,2.05
2022-09-06T10:45:16.797Z,2.83
2022-09-06T10:48:01.346Z,3.63
2022-09-06T10:50:43.834Z,1.90
2022-09-06T10:53:22.641Z,2.72
2022-09-06T10:56:03.594Z,1.85
2022-09-06T11:01:35.817Z,1.85
2022-09-06T11:04:12.850Z,1.80
2022-09-06T11:06:46.422Z,2.13
2022-09-06T11:09:24.026Z,2.38
2022-09-06T11:12:01.258Z,2.05
2022-09-06T11:14:30.153Z,1.70
2022-09-06T11:17:06.609Z,2.33
2022-09-06T11:19:44.235Z,2.65
2022-09-06T11:22:50.088Z,2.00
2022-09-06T11:26:16.851Z,2.90
2022-09-06T11:28:49.798Z,2.50
2022-09-06T11:34:24.094Z,2.15
2022-09-06T11:36:55.498Z,2.60
2022-09-06T11:42:42.610Z,1.90
2022-09-06T11:45:21.677Z,1.77
2022-09-06T11:47:51.751Z,1.90
2022-09-06T11:51:02.212Z,2.08
2022-09-06T11:53:32.595Z,1.70
2022-09-06T11:56:26.888Z,1.77
2022-09-06T11:59:00.561Z,3.40
2022-09-06T12:01:39.363Z,2.88
2022-09-06T12:04:10.759Z,3.30
2022-09-06T12:06:43.784Z,3.05
2022-09-06T12:09:31.555Z,2.38
2022-09-06T12:12:01.194Z,4.78
2022-09-06T12:14:34.084Z,2.50
2022-09-06T12:17:46.348Z,6.90
2022-09-06T12:21:04.135Z,12.07
2022-09-06T12:23:44.546Z,7.45
2022-09-06T12:26:13.659Z,7.18
2022-09-06T12:28:49.890Z,5.30
2022-09-06T12:31:37.801Z,5.75
2022-09-06T12:34:18.461Z,7.82
2022-09-06T12:36:56.637Z,3.22
2022-09-06T12:39:26.818Z,43.28
2022-09-06T12:41:59.006Z,115.95
2022-09-06T12:44:34.874Z,111.32
2022-09-06T12:47:15.602Z,85.95
2022-09-06T12:49:43.941Z,63.05
2022-09-06T12:52:20.593Z,105.45
2022-09-06T12:54:51.165Z,215.45
2022-09-06T12:57:22.557Z,186.52
2022-09-06T12:59:56.046Z,170.68
2022-09-06T13:02:36.514Z,129.45
2022-09-06T13:05:08.905Z,97.65
2022-09-06T13:07:46.198Z,85.70
2022-09-06T13:10:16.239Z,75.80
2022-09-06T13:12:47.936Z,69.57
2022-09-06T13:15:20.595Z,68.05
2022-09-06T13:17:49.480Z,64.60
2022-09-06T13:20:27.811Z,63.58
2022-09-06T13:23:10.452Z,56.50
2022-09-06T13:25:48.868Z,52.13
2022-09-06T13:28:26.973Z,55.58
2022-09-06T13:31:09.146Z,48.90
2022-09-06T13:33:38.733Z,41.08
2022-09-06T13:36:20.277Z,43.25
2022-09-06T13:38:50.742Z,39.63
2022-09-06T13:41:44.646Z,40.40
2022-09-06T13:44:29.606Z,35.28
2022-09-06T13:46:58.158Z,34.67
2022-09-06T13:49:28.209Z,38.10
2022-09-06T13:52:01.175Z,34.97
2022-09-06T13:54:31.857Z,29.38
2022-09-06T13:57:04.092Z,29.77
2022-09-06T13:59:37.790Z,29.40
2022-09-06T14:02:10.246Z,30.85
2022-09-06T14:04:39.407Z,26.95
2022-09-06T14:07:07.500Z,26.55
2022-09-06T14:09:37.486Z,24.67
2022-09-06T14:12:06.864Z,21.23
2022-09-06T14:14:35.426Z,24.27
2022-09-06T14:17:03.803Z,26.02
2022-09-06T14:19:31.959Z,22.50
2022-09-06T14:22:00.138Z,21.10
2022-09-06T14:24:28.475Z,21.15
2022-09-06T14:26:58.022Z,17.80
2022-09-06T14:29:26.200Z,16.10
2022-09-06T14:31:54.327Z,16.58
2022-09-06T14:34:22.637Z,18.08
2022-09-06T14:36:51.198Z,18.08
2022-09-06T14:39:19.903Z,15.82
2022-09-06T14:41:48.251Z,12.27
2022-09-06T14:44:18.593Z,14.90
2022-09-06T14:46:47.703Z,9.43
2022-09-06T14:49:16.076Z,11.75
2022-09-06T14:51:45.901Z,12.00
2022-09-06T14:54:15.822Z,11.15
2022-09-06T14:56:45.231Z,9.50
2022-09-06T14:59:13.891Z,9.32
2022-09-06T15:01:43.633Z,9.73
2022-09-06T15:04:12.845Z,7.47
2022-09-06T15:06:46.857Z,7.85
2022-09-06T15:09:15.844Z,6.53
2022-09-06T15:11:47.607Z,6.47
2022-09-06T15:14:19.137Z,5.57
2022-09-06T15:16:55.290Z,15.35
2022-09-06T15:19:25.413Z,42.08
2022-09-06T15:21:54.033Z,81.00
2022-09-06T15:24:22.762Z,62.60
2022-09-06T15:26:52.200Z,45.83
2022-09-06T15:29:21.384Z,31.15
2022-09-06T15:31:51.820Z,23.65
2022-09-06T15:34:21.959Z,26.23
2022-09-06T15:36:50.636Z,20.92
2022-09-06T15:39:19.433Z,15.55
2022-09-06T15:41:48.030Z,17.85
2022-09-06T15:44:19.225Z,12.88
2022-09-06T15:46:52.394Z,15.07
2022-09-06T15:49:27.604Z,13.35
2022-09-06T15:51:58.371Z,11.43
2022-09-06T15:54:40.748Z,11.85
2022-09-06T15:57:10.306Z,12.02
2022-09-06T15:59:39.941Z,9.57
2022-09-06T16:02:10.969Z,10.70
2022-09-06T16:04:39.739Z,11.40
2022-09-06T16:07:09.683Z,10.60
2022-09-06T16:09:38.033Z,10.15
2022-09-06T16:12:06.660Z,9.13
2022-09-06T16:14:35.657Z,7.65
2022-09-06T16:17:03.952Z,6.97
2022-09-06T16:19:34.716Z,7.68
2022-09-06T16:22:02.960Z,8.10
2022-09-06T16:24:31.246Z,9.73
2022-09-06T16:26:59.523Z,7.10
2022-09-06T16:29:27.895Z,7.57
2022-09-06T16:31:59.672Z,7.05
2022-09-06T16:34:28.060Z,7.85
2022-09-06T16:36:57.991Z,5.68
2022-09-06T16:39:26.268Z,6.22
2022-09-06T16:41:54.528Z,6.72
2022-09-06T16:44:22.728Z,11.55
2022-09-06T16:46:52.963Z,8.75
2022-09-06T16:49:21.602Z,6.95
2022-09-06T16:51:51.280Z,6.28
2022-09-06T16:54:21.963Z,7.13
2022-09-06T16:56:50.205Z,6.53
2022-09-06T16:59:18.580Z,6.80
2022-09-06T17:01:47.333Z,5.15
2022-09-06T17:04:16.389Z,6.32
2022-09-06T17:06:47.462Z,6.28
2022-09-06T17:09:18.732Z,6.07
2022-09-06T17:11:50.051Z,7.43
2022-09-06T17:14:19.251Z,6.45
2022-09-06T17:17:05.138Z,5.22
2022-09-06T17:19:37.599Z,5.43
2022-09-06T17:22:06.130Z,5.03
2022-09-06T17:24:35.051Z,5.63
2022-09-06T17:27:05.809Z,6.72
2022-09-06T17:29:34.773Z,5.07
2022-09-06T17:32:10.071Z,5.30
2022-09-06T17:34:48.722Z,6.00
2022-09-06T17:37:17.293Z,6.13
2022-09-06T17:39:46.050Z,7.32
2022-09-06T17:42:14.771Z,4.43
2022-09-06T17:44:45.627Z,5.78
2022-09-06T17:47:14.527Z,5.05
2022-09-06T17:49:43.769Z,5.03
2022-09-06T17:52:13.975Z,7.30
2022-09-06T17:54:47.156Z,5.65
2022-09-06T17:57:15.968Z,5.55
2022-09-06T17:59:44.379Z,4.90
2022-09-06T18:02:14.069Z,6.28
2022-09-06T18:04:43.545Z,6.63
2022-09-06T18:07:14.574Z,9.52
2022-09-06T18:09:43.365Z,6.20
2022-09-06T18:12:12.158Z,8.18
2022-09-06T18:14:41.277Z,7.18
2022-09-06T18:19:58.431Z,5.20
2022-09-06T18:22:28.055Z,5.72
2022-09-06T18:24:58.419Z,5.10
2022-09-06T18:27:27.071Z,5.88
2022-09-06T18:29:55.708Z,6.45
2022-09-06T18:32:24.820Z,7.63
2022-09-06T18:34:53.112Z,5.93
2022-09-06T18:37:21.408Z,4.85
2022-09-06T18:39:51.073Z,5.28
2022-09-06T18:42:20.092Z,5.07
2022-09-06T18:44:48.443Z,5.93
2022-09-06T18:47:17.216Z,5.82
2022-09-06T18:49:45.390Z,8.05
2022-09-06T18:52:13.850Z,5.32
2022-09-06T18:54:43.692Z,5.60
2022-09-06T18:57:15.564Z,4.60
2022-09-06T18:59:44.270Z,6.25
2022-09-06T19:02:12.996Z,6.70
2022-09-06T19:04:41.470Z,5.43
2022-09-06T19:07:09.817Z,4.57
2022-09-06T19:09:38.355Z,7.80
2022-09-06T19:12:07.291Z,4.55
2022-09-06T19:14:37.012Z,4.65
2022-09-06T19:17:07.268Z,5.95
2022-09-06T19:19:35.894Z,4.57
2022-09-06T19:22:04.578Z,6.40
2022-09-06T19:24:33.914Z,4.10
2022-09-06T19:27:02.118Z,4.47
2022-09-06T19:29:32.019Z,4.82
2022-09-06T19:32:01.914Z,5.15
2022-09-06T19:34:30.764Z,5.22
2022-09-06T19:36:59.084Z,5.85
2022-09-06T19:39:34.847Z,6.70
2022-09-06T19:42:06.425Z,3.85
2022-09-06T19:44:34.745Z,5.82
2022-09-06T19:47:05.386Z,4.03
2022-09-06T19:49:34.110Z,5.53
2022-09-06T19:52:09.452Z,6.95
2022-09-06T19:54:38.091Z,4.40
2022-09-06T19:57:07.061Z,3.60
2022-09-06T19:59:36.615Z,3.85
2022-09-06T20:02:06.960Z,4.30
2022-09-06T20:04:35.382Z,5.63
2022-09-06T20:07:03.692Z,3.83
2022-09-06T20:09:32.108Z,3.95
2022-09-06T20:12:00.373Z,4.63
2022-09-06T20:14:28.893Z,6.22
2022-09-06T20:17:11.131Z,4.22
2022-09-06T20:19:46.639Z,6.63
2022-09-06T20:22:14.950Z,4.97
2022-09-06T20:24:43.463Z,4.00
2022-09-06T20:27:11.854Z,4.10
2022-09-06T20:29:40.095Z,3.90
2022-09-06T20:32:08.335Z,6.03
2022-09-06T20:34:36.664Z,3.95
2022-09-06T20:37:06.298Z,4.43
2022-09-06T20:49:03.547Z,6.95
2022-09-06T20:51:33.619Z,5.57
2022-09-06T20:54:06.389Z,3.72
2022-09-06T20:56:38.400Z,3.97
2022-09-06T20:59:09.278Z,3.90
2022-09-06T21:01:41.158Z,4.15
2022-09-06T21:04:10.867Z,4.40
2022-09-06T21:06:41.107Z,4.22
2022-09-06T21:09:14.014Z,3.88
2022-09-06T21:11:43.216Z,5.07
2022-09-06T21:14:11.790Z,3.70
2022-09-06T21:16:41.323Z,3.50
2022-09-06T21:19:12.059Z,3.45
2022-09-06T21:21:41.460Z,3.17
2022-09-06T21:24:12.142Z,3.75
2022-09-06T21:26:40.985Z,6.07
2022-09-06T21:29:09.919Z,3.53
2022-09-06T21:31:39.026Z,6.28
2022-09-06T21:34:16.975Z,4.13
2022-09-06T21:36:49.883Z,6.03
2022-09-06T21:39:19.517Z,3.70
2022-09-06T21:41:48.017Z,5.53
2022-09-06T21:44:16.256Z,4.00
2022-09-06T21:46:45.469Z,3.88
2022-09-06T21:49:16.353Z,6.50
2022-09-06T21:51:45.118Z,3.60
2022-09-06T21:54:13.347Z,3.92
2022-09-06T21:56:43.441Z,3.83
2022-09-06T21:59:12.093Z,3.75
2022-09-06T22:01:44.911Z,3.30
2022-09-06T22:04:16.600Z,3.95
2022-09-06T22:06:47.916Z,3.92
2022-09-06T22:09:16.103Z,5.80
2022-09-06T22:11:48.909Z,4.32
2022-09-06T22:14:17.261Z,3.85
2022-09-06T22:16:45.615Z,3.60
2022-09-06T22:19:14.242Z,3.80
2022-09-06T22:21:42.491Z,4.65
2022-09-06T22:24:13.233Z,3.28
2022-09-06T22:26:43.088Z,4.15
2022-09-06T22:29:15.785Z,4.28
2022-09-06T22:31:44.660Z,3.55
2022-09-06T22:34:13.233Z,3.45
2022-09-06T22:36:41.611Z,3.85
2022-09-06T22:39:10.310Z,3.50
2022-09-06T22:41:40.821Z,3.72
2022-09-06T22:44:09.087Z,5.38
2022-09-06T22:46:39.473Z,3.50
2022-09-06T22:49:10.551Z,4.47
2022-09-06T22:52:04.276Z,4.18
2022-09-06T22:54:33.038Z,4.25
2022-09-06T22:57:01.394Z,3.95
2022-09-06T22:59:29.623Z,5.22
2022-09-06T23:46:14.608Z,3.63
2022-09-06T23:48:43.963Z,3.22
2022-09-06T23:51:13.072Z,3.88
2022-09-06T23:53:41.744Z,3.28
2022-09-06T23:56:10.787Z,3.25
2022-09-06T23:58:40.389Z,3.25
